TimeCST,TemperatureF,Dew PointF,Humidity,Sea Level PressureIn,VisibilityMPH,Wind Direction,Wind SpeedMPH,Gust SpeedMPH,PrecipitationIn,Events,Conditions,WindDirDegrees,DateUTC
12:15 AM,37.4,32.0,81,30.30,10.0,ESE,4.6,-,N/A,,Clear,120,2012-12-13 06:15:00
12:35 AM,37.4,32.0,81,30.29,10.0,ESE,3.5,-,N/A,,Clear,120,2012-12-13 06:35:00
12:55 AM,35.6,32.0,87,30.29,10.0,Calm,Calm,-,N/A,,Clear,0,2012-12-13 06:55:00
1:15 AM,37.4,32.0,81,30.29,10.0,Calm,Calm,-,N/A,,Clear,0,2012-12-13 07:15:00
1:35 AM,35.6,32.0,87,30.29,10.0,Calm,Calm,-,N/A,,Clear,0,2012-12-13 07:35:00
1:55 AM,33.8,32.0,93,30.29,10.0,North,3.5,-,N/A,,Clear,10,2012-12-13 07:55:00
2:15 AM,33.8,32.0,93,30.29,10.0,NNE,4.6,-,N/A,,Clear,30,2012-12-13 08:15:00
2:35 AM,33.8,32.0,93,30.29,10.0,Calm,Calm,-,N/A,,Clear,0,2012-12-13 08:35:00
2:55 AM,35.6,33.8,93,30.29,10.0,Calm,Calm,-,N/A,,Clear,0,2012-12-13 08:55:00
3:15 AM,35.6,32.0,87,30.29,10.0,Calm,Calm,-,N/A,,Clear,0,2012-12-13 09:15:00
3:35 AM,35.6,33.8,93,30.30,10.0,Calm,Calm,-,N/A,,Clear,0,2012-12-13 09:35:00
3:55 AM,35.6,32.0,87,30.30,10.0,Calm,Calm,-,N/A,,Clear,0,2012-12-13 09:55:00
4:15 AM,33.8,32.0,93,30.29,10.0,Calm,Calm,-,N/A,,Clear,0,2012-12-13 10:15:00
4:35 AM,33.8,32.0,93,30.29,10.0,North,3.5,-,N/A,,Clear,360,2012-12-13 10:35:00
4:55 AM,32.0,32.0,100,30.29,10.0,NNE,4.6,-,N/A,,Clear,30,2012-12-13 10:55:00
5:15 AM,32.0,32.0,100,30.28,10.0,NNE,4.6,-,N/A,,Clear,20,2012-12-13 11:15:00
5:35 AM,33.8,32.0,93,30.29,10.0,NNE,3.5,-,N/A,,Clear,30,2012-12-13 11:35:00
6:15 AM,33.8,32.0,93,30.30,10.0,Calm,Calm,-,N/A,,Clear,0,2012-12-13 12:15:00
6:35 AM,33.8,32.0,93,30.31,10.0,North,3.5,-,N/A,,Clear,10,2012-12-13 12:35:00
6:55 AM,32.0,30.2,93,30.31,10.0,North,3.5,-,N/A,,Clear,10,2012-12-13 12:55:00
7:15 AM,32.0,30.2,93,30.32,10.0,North,4.6,-,N/A,,Clear,10,2012-12-13 13:15:00
7:35 AM,33.8,32.0,93,30.32,10.0,North,3.5,-,N/A,,Clear,10,2012-12-13 13:35:00
7:55 AM,35.6,32.0,87,30.32,10.0,Calm,Calm,-,N/A,,Clear,0,2012-12-13 13:55:00
8:15 AM,39.2,33.8,81,30.33,10.0,NE,4.6,-,N/A,,Clear,40,2012-12-13 14:15:00
8:35 AM,42.8,35.6,76,30.33,10.0,NE,4.6,-,N/A,,Clear,50,2012-12-13 14:35:00
8:55 AM,46.4,35.6,66,30.33,10.0,ENE,6.9,-,N/A,,Clear,60,2012-12-13 14:55:00
9:15 AM,50.0,37.4,62,30.33,10.0,East,10.4,-,N/A,,Clear,80,2012-12-13 15:15:00
9:35 AM,51.8,37.4,58,30.34,10.0,ENE,8.1,-,N/A,,Clear,70,2012-12-13 15:35:00
9:55 AM,53.6,39.2,58,30.34,10.0,ENE,8.1,-,N/A,,Clear,70,2012-12-13 15:55:00
10:15 AM,55.4,41.0,58,30.34,10.0,East,10.4,-,N/A,,Clear,90,2012-12-13 16:15:00
10:35 AM,57.2,41.0,55,30.33,10.0,ENE,8.1,-,N/A,,Clear,70,2012-12-13 16:35:00
10:55 AM,60.8,41.0,48,30.33,10.0,East,10.4,-,N/A,,Clear,80,2012-12-13 16:55:00
11:15 AM,60.8,41.0,48,30.33,10.0,ESE,9.2,-,N/A,,Clear,110,2012-12-13 17:15:00
11:35 AM,62.6,39.2,42,30.32,10.0,ESE,8.1,-,N/A,,Clear,120,2012-12-13 17:35:00
11:55 AM,64.4,37.4,37,30.32,10.0,ENE,4.6,-,N/A,,Clear,60,2012-12-13 17:55:00
12:15 PM,64.4,35.6,34,30.31,10.0,ENE,5.8,-,N/A,,Clear,70,2012-12-13 18:15:00
12:35 PM,64.4,33.8,32,30.29,10.0,East,5.8,-,N/A,,Clear,80,2012-12-13 18:35:00
12:55 PM,64.4,33.8,32,30.28,10.0,East,5.8,-,N/A,,Clear,90,2012-12-13 18:55:00
1:15 PM,66.2,33.8,30,30.27,10.0,East,5.8,-,N/A,,Clear,80,2012-12-13 19:15:00
1:35 PM,66.2,33.8,30,30.26,10.0,Calm,Calm,-,N/A,,Clear,0,2012-12-13 19:35:00
1:55 PM,66.2,33.8,30,30.25,10.0,Calm,Calm,-,N/A,,Clear,0,2012-12-13 19:55:00
2:15 PM,68.0,33.8,28,30.24,10.0,East,3.5,-,N/A,,Clear,90,2012-12-13 20:15:00
2:35 PM,68.0,35.6,30,30.24,10.0,ESE,8.1,-,N/A,,Clear,110,2012-12-13 20:35:00
2:55 PM,68.0,35.6,30,30.23,10.0,East,8.1,-,N/A,,Clear,90,2012-12-13 20:55:00
3:15 PM,68.0,35.6,30,30.23,10.0,SE,8.1,-,N/A,,Clear,130,2012-12-13 21:15:00
3:35 PM,64.4,37.4,37,30.23,10.0,SE,6.9,-,N/A,,Scattered Clouds,130,2012-12-13 21:35:00
3:55 PM,64.4,37.4,37,30.22,10.0,ESE,5.8,-,N/A,,Overcast,120,2012-12-13 21:55:00
4:15 PM,64.4,39.2,40,30.23,10.0,East,6.9,-,N/A,,Overcast,90,2012-12-13 22:15:00
4:35 PM,64.4,41.0,42,30.23,10.0,ESE,10.4,-,N/A,,Overcast,120,2012-12-13 22:35:00
7:15 PM,59.0,42.8,55,30.22,10.0,East,9.2,-,N/A,,Overcast,100,2012-12-14 01:15:00
7:35 PM,57.2,42.8,59,30.22,10.0,East,11.5,17.3,N/A,,Overcast,80,2012-12-14 01:35:00
7:55 PM,55.4,44.6,67,30.23,10.0,East,8.1,-,N/A,,Overcast,100,2012-12-14 01:55:00
8:15 PM,55.4,44.6,67,30.24,10.0,East,9.2,-,N/A,,Overcast,100,2012-12-14 02:15:00
8:35 PM,55.4,44.6,67,30.24,10.0,East,6.9,-,N/A,,Overcast,90,2012-12-14 02:35:00
8:55 PM,55.4,44.6,67,30.23,10.0,East,9.2,-,N/A,,Overcast,90,2012-12-14 02:55:00
9:15 PM,55.4,44.6,67,30.22,10.0,ENE,8.1,-,N/A,,Overcast,70,2012-12-14 03:15:00
9:35 PM,55.4,44.6,67,30.22,10.0,East,8.1,-,N/A,,Overcast,90,2012-12-14 03:35:00
9:55 PM,55.4,44.6,67,30.23,10.0,East,8.1,-,N/A,,Overcast,100,2012-12-14 03:55:00
10:15 PM,55.4,44.6,67,30.22,10.0,East,6.9,-,N/A,,Overcast,90,2012-12-14 04:15:00
10:35 PM,55.4,44.6,67,30.22,10.0,East,6.9,-,N/A,,Overcast,90,2012-12-14 04:35:00
10:55 PM,55.4,44.6,67,30.21,10.0,East,5.8,-,N/A,,Overcast,90,2012-12-14 04:55:00
11:15 PM,55.4,44.6,67,30.21,10.0,East,5.8,-,N/A,,Overcast,80,2012-12-14 05:15:00
11:35 PM,55.4,44.6,67,30.21,10.0,ENE,4.6,-,N/A,,Overcast,70,2012-12-14 05:35:00